Time;durP1;ratioP1;P1;durP2;ratioP2;P2;SDS_P1;SDS_P2;PMS_P1;PMS_P2;Temp;Humidity;BMP_temperature;BMP_pressure;BME280_temperature;BME280_humidity;BME280_pressure;Samples;Min_cycle;Max_cycle;Signal;HPM_P1;HPM_P2
2022/07/12 00:01:00;;;;;;;15.30;12.82;;;;;;;16.43;100.00;100633.05;1757154;81;21084;-88
2022/07/12 00:03:27;;;;;;;16.32;12.37;;;;;;;16.45;100.00;100644.75;1757149;80;21017;-88
2022/07/12 00:05:55;;;;;;;18.37;12.80;;;;;;;16.45;100.00;100650.82;1756774;81;21532;-88
2022/07/12 00:08:23;;;;;;;17.37;12.00;;;;;;;16.46;100.00;100649.03;1757204;81;21467;-88
2022/07/12 00:10:51;;;;;;;16.55;12.03;;;;;;;16.46;100.00;100649.03;1757177;80;21544;-87
2022/07/12 00:13:18;;;;;;;17.90;11.90;;;;;;;16.44;100.00;100650.98;1757300;80;21044;-89
2022/07/12 00:15:46;;;;;;;19.17;11.90;;;;;;;16.39;100.00;100656.19;1757350;81;21050;-88
2022/07/12 00:18:13;;;;;;;16.00;11.15;;;;;;;16.33;100.00;100652.05;1757161;81;21034;-89
2022/07/12 00:20:40;;;;;;;19.80;11.38;;;;;;;16.26;100.00;100657.58;1757161;80;21092;-88
2022/07/12 00:23:07;;;;;;;17.05;11.20;;;;;;;16.21;100.00;100662.78;1757268;80;21220;-88
2022/07/12 00:25:34;;;;;;;16.40;11.57;;;;;;;16.16;100.00;100661.11;1757432;81;21031;-88
2022/07/12 00:28:02;;;;;;;19.12;12.58;;;;;;;16.13;100.00;100660.59;1734131;82;21042;-88
2022/07/12 00:30:29;;;;;;;18.57;12.15;;;;;;;16.09;100.00;100660.87;1734086;82;21516;-88
2022/07/12 00:32:57;;;;;;;15.98;10.55;;;;;;;16.05;100.00;100663.95;1734125;82;21043;-88
2022/07/12 00:35:24;;;;;;;13.98;10.55;;;;;;;16.01;100.00;100660.80;1734432;82;21524;-87
2022/07/12 00:37:51;;;;;;;13.80;10.28;;;;;;;15.97;100.00;100668.66;1734048;81;21074;-87
2022/07/12 00:40:19;;;;;;;15.75;10.15;;;;;;;15.90;100.00;100674.17;1735005;82;21094;-88
2022/07/12 00:42:46;;;;;;;13.45;10.03;;;;;;;15.85;100.00;100671.14;1734419;82;21543;-88
2022/07/12 00:45:13;;;;;;;13.20;9.80;;;;;;;15.79;100.00;100669.90;1737194;82;21045;-88
2022/07/12 00:47:44;;;;;;;13.83;9.28;;;;;;;15.75;100.00;100677.25;1741305;82;21157;-89
2022/07/12 00:50:15;;;;;;;21.35;9.90;;;;;;;15.70;100.00;100673.44;1714477;83;21034;-88
2022/07/12 00:52:49;;;;;;;19.12;9.90;;;;;;;15.63;100.00;100669.25;1741240;82;21768;-89
2022/07/12 00:55:18;;;;;;;12.65;9.68;;;;;;;15.62;100.00;100676.78;1741556;82;21017;-88
2022/07/12 00:57:47;;;;;;;14.73;8.83;;;;;;;15.59;100.00;100675.75;1741073;82;21038;-88
2022/07/12 01:00:18;;;;;;;9.33;8.20;;;;;;;15.54;100.00;100683.25;1741051;82;21159;-88
2022/07/12 01:02:47;;;;;;;12.07;7.78;;;;;;;15.49;100.00;100685.00;1740739;82;21065;-88
2022/07/12 01:05:14;;;;;;;13.90;8.80;;;;;;;15.45;100.00;100691.02;1741023;82;21056;-89
2022/07/12 01:07:41;;;;;;;12.00;9.53;;;;;;;15.39;100.00;100682.42;1741279;82;22226;-89
2022/07/12 01:10:09;;;;;;;15.43;9.50;;;;;;;15.33;100.00;100689.58;1741040;82;21132;-88
2022/07/12 01:12:36;;;;;;;14.78;10.45;;;;;;;15.28;100.00;100686.07;1741466;82;21922;-89
2022/07/12 01:15:08;;;;;;;13.70;10.00;;;;;;;15.28;100.00;100687.84;1740928;81;21081;-89
2022/07/12 01:17:39;;;;;;;15.85;11.73;;;;;;;15.27;100.00;100688.34;1741110;82;21021;-89
2022/07/12 01:20:07;;;;;;;17.05;10.98;;;;;;;15.26;100.00;100691.94;1741115;81;21647;-88
2022/07/12 01:22:37;;;;;;;16.55;10.75;;;;;;;15.27;100.00;100694.06;1753496;80;21081;-89
2022/07/12 01:25:06;;;;;;;17.12;11.03;;;;;;;15.28;100.00;100687.84;1679056;84;21160;-89
2022/07/12 01:27:33;;;;;;;15.15;10.58;;;;;;;15.30;100.00;100689.84;1707491;84;21062;-89
2022/07/12 01:30:03;;;;;;;18.12;10.15;;;;;;;15.34;100.00;100693.01;1707689;83;21046;-90
2022/07/12 01:32:31;;;;;;;14.18;10.32;;;;;;;15.35;100.00;100695.98;1707550;83;20988;-90
2022/07/12 01:35:08;;;;;;;15.18;10.80;;;;;;;15.37;100.00;100697.48;1707737;84;21086;-88
2022/07/12 01:37:41;;;;;;;13.18;10.32;;;;;;;15.40;100.00;100706.85;1707542;83;21230;-88
2022/07/12 01:40:12;;;;;;;13.70;11.10;;;;;;;15.40;100.00;100707.70;1707644;84;21042;-89
2022/07/12 01:42:40;;;;;;;17.25;11.18;;;;;;;15.43;100.00;100708.70;1707908;84;21063;-89
2022/07/12 01:45:08;;;;;;;15.80;10.58;;;;;;;15.45;100.00;100712.52;1707747;83;21057;-89
2022/07/12 01:47:36;;;;;;;13.90;10.95;;;;;;;15.45;100.00;100715.95;1707959;84;21076;-88
2022/07/12 01:50:09;;;;;;;17.00;11.45;;;;;;;15.48;100.00;100716.64;1707764;83;21133;-89
2022/07/12 01:52:39;;;;;;;14.43;11.15;;;;;;;15.49;100.00;100715.17;1707690;83;21056;-89
2022/07/12 01:55:08;;;;;;;14.40;11.18;;;;;;;15.53;100.00;100723.58;1707991;83;21101;-89
2022/07/12 01:57:36;;;;;;;14.55;10.58;;;;;;;15.52;100.00;100726.70;1707651;83;21079;-89
2022/07/12 02:00:06;;;;;;;13.62;11.00;;;;;;;15.53;100.00;100733.61;1707470;84;21066;-88
2022/07/12 02:02:34;;;;;;;12.82;10.68;;;;;;;15.53;100.00;100737.55;1707288;84;21178;-89
2022/07/12 02:05:03;;;;;;;13.75;11.20;;;;;;;15.55;100.00;100749.20;1707683;84;21026;-89
2022/07/12 02:07:32;;;;;;;16.80;11.20;;;;;;;15.53;100.00;100751.98;1707435;84;21095;-89
2022/07/12 02:10:00;;;;;;;18.85;11.15;;;;;;;15.54;100.00;100746.23;1707926;84;21050;-89
2022/07/12 02:12:27;;;;;;;14.60;11.12;;;;;;;15.54;100.00;100754.11;1708037;83;21098;-89
2022/07/12 02:14:54;;;;;;;14.33;11.18;;;;;;;15.51;100.00;100751.76;1707781;84;21875;-89
2022/07/12 02:17:21;;;;;;;18.02;11.00;;;;;;;15.49;100.00;100752.41;1707966;84;21064;-88
2022/07/12 02:19:48;;;;;;;11.65;10.00;;;;;;;15.46;100.00;100758.78;1707801;83;21117;-89
2022/07/12 02:22:15;;;;;;;13.98;9.83;;;;;;;15.43;100.00;100759.05;1707804;84;21047;-89
2022/07/12 02:24:43;;;;;;;13.28;9.88;;;;;;;15.41;100.00;100757.05;1677829;85;21117;-89
2022/07/12 02:27:11;;;;;;;11.83;9.20;;;;;;;15.39;100.00;100762.45;1707357;84;22022;-90
2022/07/12 02:29:38;;;;;;;11.53;9.18;;;;;;;15.38;100.00;100764.73;1677884;85;21097;-90
2022/07/12 02:32:06;;;;;;;11.33;8.38;;;;;;;15.38;100.00;100762.11;1707712;84;21059;-90
2022/07/12 02:34:34;;;;;;;9.60;8.23;;;;;;;15.37;100.00;100761.76;1685996;84;21078;-88
2022/07/12 02:37:02;;;;;;;12.78;9.05;;;;;;;15.37;100.00;100766.20;1713963;82;21061;-89
2022/07/12 02:39:30;;;;;;;13.13;9.60;;;;;;;15.36;100.00;100770.59;1712270;83;21872;-89
2022/07/12 02:41:57;;;;;;;13.20;9.20;;;;;;;15.38;100.00;100773.91;1712279;83;21484;-89
2022/07/12 02:44:24;;;;;;;12.65;8.90;;;;;;;15.39;100.00;100766.86;1713071;83;21053;-89
2022/07/12 02:46:52;;;;;;;13.78;8.65;;;;;;;15.39;100.00;100771.63;1764076;81;21485;-89
2022/07/12 02:49:19;;;;;;;11.18;8.55;;;;;;;15.41;100.00;100780.66;1759304;81;20995;-89
2022/07/12 02:51:46;;;;;;;9.95;8.05;;;;;;;15.40;100.00;100775.91;1768802;81;21136;-89
2022/07/12 02:54:13;;;;;;;8.58;7.72;;;;;;;15.41;100.00;100778.88;1736940;82;21046;-89
2022/07/12 02:56:40;;;;;;;9.53;7.95;;;;;;;15.41;100.00;100780.20;1736897;82;21114;-88
2022/07/12 02:59:07;;;;;;;8.95;7.30;;;;;;;15.42;100.00;100781.01;1736839;82;21036;-89
2022/07/12 03:01:35;;;;;;;8.03;7.22;;;;;;;15.44;100.00;100776.45;1737346;82;20999;-89
2022/07/12 03:04:02;;;;;;;9.13;7.42;;;;;;;15.50;100.00;100775.06;1737387;82;21125;-89
2022/07/12 03:06:29;;;;;;;11.33;8.10;;;;;;;15.55;100.00;100771.02;1736976;82;21045;-90
2022/07/12 03:08:56;;;;;;;11.43;8.33;;;;;;;15.61;100.00;100778.80;1737127;82;21034;-89
2022/07/12 03:11:23;;;;;;;10.35;8.08;;;;;;;15.67;100.00;100776.91;1737178;82;21105;-88
2022/07/12 03:13:50;;;;;;;12.10;9.25;;;;;;;15.72;100.00;100780.41;1736836;82;21043;-88
2022/07/12 03:16:18;;;;;;;11.28;9.03;;;;;;;15.80;100.00;100783.63;1737400;82;21111;-90
2022/07/12 03:18:46;;;;;;;14.30;10.55;;;;;;;15.85;100.00;100779.63;1737039;82;21082;-89
2022/07/12 03:21:13;;;;;;;13.60;10.72;;;;;;;15.93;100.00;100784.14;1737160;82;21066;-88
2022/07/12 03:23:40;;;;;;;15.00;11.75;;;;;;;15.97;100.00;100789.45;1737382;82;21513;-89
2022/07/12 03:26:08;;;;;;;15.78;12.20;;;;;;;16.01;100.00;100786.05;1737168;82;21109;-89
2022/07/12 03:28:35;;;;;;;15.90;13.43;;;;;;;16.05;100.00;100790.86;1733381;82;21135;-90
2022/07/12 03:31:02;;;;;;;14.63;12.80;;;;;;;16.09;100.00;100792.20;1718310;82;21055;-88
2022/07/12 03:33:29;;;;;;;22.55;14.85;;;;;;;16.15;100.00;100794.73;1716147;82;22128;-89
2022/07/12 03:35:57;;;;;;;23.90;14.78;;;;;;;16.20;100.00;100797.73;1711364;82;21086;-88
2022/07/12 03:38:24;;;;;;;25.92;14.60;;;;;;;16.28;100.00;100796.17;1718269;82;20933;-88
2022/07/12 03:40:51;;;;;;;19.62;13.88;;;;;;;16.34;100.00;100805.61;1707504;84;21136;-87
2022/07/12 03:43:18;;;;;;;16.48;14.07;;;;;;;16.42;100.00;100805.34;1707659;84;21051;-88
2022/07/12 03:45:45;;;;;;;18.07;14.53;;;;;;;16.49;100.00;100806.41;1707695;84;21098;-88
2022/07/12 03:48:13;;;;;;;16.37;13.93;;;;;;;16.54;100.00;100805.48;1707203;83;21565;-88
2022/07/12 03:50:42;;;;;;;17.23;14.20;;;;;;;16.62;100.00;100806.03;1707702;84;21617;-88
2022/07/12 03:53:09;;;;;;;17.75;13.20;;;;;;;16.72;100.00;100812.86;1707418;84;21151;-88
2022/07/12 03:55:37;;;;;;;14.00;12.53;;;;;;;16.81;100.00;100816.41;1707384;83;21052;-88
2022/07/12 03:58:05;;;;;;;14.18;11.68;;;;;;;16.89;100.00;100815.63;1710164;82;21558;-89
2022/07/12 04:00:32;;;;;;;15.45;11.63;;;;;;;16.96;100.00;100818.02;1712390;82;21067;-89
2022/07/12 04:03:00;;;;;;;13.53;10.95;;;;;;;17.03;100.00;100813.80;1715396;82;21050;-88
2022/07/12 04:05:27;;;;;;;18.42;11.57;;;;;;;17.11;100.00;100820.94;1711481;82;21155;-89
2022/07/12 04:07:55;;;;;;;13.55;11.75;;;;;;;17.19;100.00;100817.52;1707077;84;21046;-88
2022/07/12 04:10:22;;;;;;;12.82;10.60;;;;;;;17.27;100.00;100818.08;1707531;82;21030;-89
2022/07/12 04:12:49;;;;;;;16.23;11.57;;;;;;;17.33;100.00;100822.25;1707975;84;21098;-89
2022/07/12 04:15:17;;;;;;;12.98;10.95;;;;;;;17.40;100.00;100826.38;1707530;84;21085;-90
2022/07/12 04:17:44;;;;;;;14.85;10.68;;;;;;;17.45;100.00;100825.45;1707747;84;21257;-87
2022/07/12 04:20:12;;;;;;;16.55;11.53;;;;;;;17.55;100.00;100823.17;1708007;84;21050;-88
2022/07/12 04:22:39;;;;;;;14.95;10.95;;;;;;;17.68;100.00;100834.13;1707765;84;21090;-88
2022/07/12 04:25:09;;;;;;;12.03;10.13;;;;;;;17.79;100.00;100837.78;1708100;82;21057;-88
2022/07/12 04:27:36;;;;;;;13.20;9.78;;;;;;;17.86;100.00;100844.58;1707149;84;21038;-89
2022/07/12 04:30:04;;;;;;;11.85;10.35;;;;;;;17.96;100.00;100846.63;1707654;84;21151;-88
2022/07/12 04:32:32;;;;;;;13.83;9.90;;;;;;;18.06;100.00;100847.81;1707152;84;21086;-88
2022/07/12 04:34:59;;;;;;;11.55;8.45;;;;;;;18.13;100.00;100846.70;1707471;84;21078;-87
2022/07/12 04:37:26;;;;;;;8.90;7.42;;;;;;;18.23;100.00;100850.00;1707438;84;21046;-85
2022/07/12 04:39:54;;;;;;;9.78;7.65;;;;;;;18.35;100.00;100853.67;1707334;84;21090;-86
2022/07/12 04:42:21;;;;;;;10.50;6.87;;;;;;;18.41;100.00;100852.55;1707803;84;21533;-85
2022/07/12 04:44:48;;;;;;;8.13;6.15;;;;;;;18.45;100.00;100855.18;1707377;84;21081;-87
2022/07/12 04:47:16;;;;;;;7.22;6.33;;;;;;;18.54;100.00;100853.41;1707530;83;21540;-86
2022/07/12 04:49:43;;;;;;;6.65;5.97;;;;;;;18.64;100.00;100857.67;1707418;83;21081;-86
2022/07/12 04:52:10;;;;;;;10.50;6.42;;;;;;;18.70;100.00;100853.91;1707813;84;21046;-86
2022/07/12 04:54:37;;;;;;;7.75;5.95;;;;;;;18.79;100.00;100864.47;1707446;84;21167;-88
2022/07/12 04:57:05;;;;;;;7.03;5.60;;;;;;;18.89;100.00;100863.31;1707459;84;21559;-88
2022/07/12 04:59:32;;;;;;;6.87;6.10;;;;;;;19.00;100.00;100860.87;1707568;83;21025;-89
2022/07/12 05:01:59;;;;;;;8.80;6.70;;;;;;;19.05;100.00;100861.22;1707189;84;21042;-87
2022/07/12 05:04:26;;;;;;;7.80;6.03;;;;;;;19.09;100.00;100864.36;1724395;82;21030;-87
2022/07/12 05:06:53;;;;;;;9.65;6.53;;;;;;;19.13;100.00;100864.34;1681181;84;21178;-88
2022/07/12 05:09:20;;;;;;;8.78;6.00;;;;;;;19.22;100.00;100869.14;1715655;82;21054;-88
2022/07/12 05:11:48;;;;;;;8.05;5.50;;;;;;;19.29;100.00;100870.59;1681475;84;21046;-88
2022/07/12 05:14:16;;;;;;;6.42;5.78;;;;;;;19.37;100.00;100867.47;1710164;83;21078;-87
2022/07/12 05:16:45;;;;;;;7.67;6.33;;;;;;;19.45;100.00;100870.58;1681300;84;21029;-87
2022/07/12 05:19:13;;;;;;;9.53;7.50;;;;;;;19.54;100.00;100870.08;1707606;84;21148;-88
2022/07/12 05:21:41;;;;;;;8.90;8.05;;;;;;;19.64;100.00;100867.25;1698916;84;21102;-89
2022/07/12 05:24:10;;;;;;;9.65;8.48;;;;;;;19.77;100.00;100864.89;1696098;84;21040;-88
2022/07/12 05:26:38;;;;;;;10.82;8.18;;;;;;;19.90;100.00;100867.54;1711543;82;21552;-88
2022/07/12 05:29:05;;;;;;;7.35;5.95;;;;;;;20.00;100.00;100864.17;1707333;83;21093;-88
2022/07/12 05:31:32;;;;;;;6.55;5.95;;;;;;;20.09;100.00;100864.47;1707719;82;21166;-88
2022/07/12 05:34:00;;;;;;;7.92;6.08;;;;;;;20.12;100.00;100869.42;1693287;83;21030;-88
2022/07/12 05:36:28;;;;;;;9.70;8.20;;;;;;;20.16;100.00;100865.42;1694882;83;21030;-88
2022/07/12 05:38:55;;;;;;;10.30;8.73;;;;;;;20.18;100.00;100870.05;1700305;84;21046;-88
2022/07/12 05:41:22;;;;;;;11.93;10.53;;;;;;;20.22;100.00;100865.23;1717930;82;21054;-88
2022/07/12 05:43:49;;;;;;;13.80;10.98;;;;;;;20.28;100.00;100869.02;1713826;82;21125;-90
2022/07/12 05:46:16;;;;;;;13.08;9.23;;;;;;;20.35;100.00;100863.87;1695437;83;21504;-88
2022/07/12 05:48:44;;;;;;;10.55;7.92;;;;;;;20.41;100.00;100869.27;1727383;82;21526;-88
2022/07/12 05:53:57;;;;;;;12.50;6.83;;;;;;;20.60;100.00;100861.89;1688975;83;22188;-87
2022/07/12 05:56:24;;;;;;;7.70;6.90;;;;;;;20.68;100.00;100868.93;1765741;80;21130;-89
2022/07/12 05:58:51;;;;;;;7.62;6.20;;;;;;;20.74;100.00;100866.95;1755799;80;21507;-88
2022/07/12 06:01:18;;;;;;;9.10;6.50;;;;;;;20.83;100.00;100874.33;1755498;80;21010;-88
2022/07/12 06:03:46;;;;;;;7.10;6.40;;;;;;;20.92;100.00;100874.59;1751459;81;21049;-89
2022/07/12 06:06:15;;;;;;;8.88;6.80;;;;;;;20.97;100.00;100874.88;1757752;80;21041;-88
2022/07/12 06:08:42;;;;;;;8.00;6.62;;;;;;;21.03;100.00;100875.48;1753246;80;21127;-88
2022/07/12 06:11:09;;;;;;;6.15;5.60;;;;;;;21.11;100.00;100872.76;1755959;80;21042;-87
2022/07/12 06:13:37;;;;;;;8.63;6.90;;;;;;;21.18;100.00;100868.91;1758031;80;21567;-88
2022/07/12 06:16:05;;;;;;;10.23;7.97;;;;;;;21.19;100.00;100866.59;1757448;80;21021;-87
2022/07/12 06:18:37;;;;;;;8.28;7.03;;;;;;;21.19;100.00;100859.16;1757892;80;21108;-87
2022/07/12 06:21:04;;;;;;;8.15;6.35;;;;;;;21.23;100.00;100865.72;1762735;80;22148;-88
2022/07/12 06:23:33;;;;;;;7.87;5.95;;;;;;;21.33;100.00;100872.92;1713712;83;21069;-88
2022/07/12 06:26:00;;;;;;;7.15;6.00;;;;;;;21.42;100.00;100871.00;1702846;83;21061;-88
2022/07/12 06:28:28;;;;;;;6.08;5.05;;;;;;;21.49;100.00;100865.30;1755910;80;21603;-89
2022/07/12 06:30:55;;;;;;;7.92;5.87;;;;;;;21.59;100.00;100871.19;1751337;80;21073;-89
2022/07/12 06:33:22;;;;;;;6.55;5.95;;;;;;;21.68;100.00;100873.75;1751241;81;21140;-89
2022/07/12 06:35:51;;;;;;;6.10;5.50;;;;;;;21.75;100.00;100871.50;1756588;80;21049;-88
2022/07/12 06:38:18;;;;;;;6.78;5.78;;;;;;;21.84;100.00;100870.08;1696912;83;21799;-88
2022/07/12 06:40:45;;;;;;;11.10;6.95;;;;;;;21.90;100.00;100865.39;1713741;83;21062;-90
2022/07/12 06:43:13;;;;;;;7.83;6.47;;;;;;;21.95;100.00;100869.62;1701450;83;21595;-89
2022/07/12 06:45:41;;;;;;;7.03;6.10;;;;;;;22.00;100.00;100864.58;1717715;83;21944;-89
2022/07/12 06:48:10;;;;;;;8.00;5.97;;;;;;;22.09;100.00;100864.48;1747557;82;21022;-89
2022/07/12 06:50:37;;;;;;;5.17;4.53;;;;;;;22.17;100.00;100870.52;1717990;83;21050;-89
2022/07/12 06:53:05;;;;;;;5.15;4.65;;;;;;;22.25;100.00;100866.92;1747434;82;21057;-90
2022/07/12 06:55:32;;;;;;;6.37;4.37;;;;;;;22.28;100.00;100870.53;1705983;82;21027;-89
2022/07/12 06:58:00;;;;;;;5.10;4.55;;;;;;;22.35;100.00;100878.58;1762288;80;21155;-89
2022/07/12 07:00:27;;;;;;;5.00;4.60;;;;;;;22.43;100.00;100871.02;1765374;80;21026;-89
2022/07/12 07:02:54;;;;;;;5.70;4.40;;;;;;;22.48;100.00;100873.44;1711271;83;21055;-90
2022/07/12 07:05:21;;;;;;;4.65;4.15;;;;;;;22.55;100.00;100874.84;1701482;84;21035;-90
2022/07/12 07:07:48;;;;;;;6.08;4.35;;;;;;;22.65;100.00;100874.52;1712157;83;21042;-89
2022/07/12 07:10:16;;;;;;;7.05;4.65;;;;;;;22.76;100.00;100882.48;1706911;83;21147;-89
2022/07/12 07:12:43;;;;;;;5.85;4.70;;;;;;;22.83;100.00;100878.05;1752621;80;21022;-89
2022/07/12 07:15:13;;;;;;;6.20;5.20;;;;;;;22.89;100.00;100883.12;1764160;80;21121;-89
2022/07/12 07:17:42;;;;;;;5.37;4.45;;;;;;;22.96;100.00;100883.48;1751184;80;21097;-92
2022/07/12 07:20:11;;;;;;;6.85;4.47;;;;;;;23.05;100.00;100876.70;1756091;80;21068;-89
2022/07/12 07:22:38;;;;;;;5.83;4.78;;;;;;;23.13;100.00;100885.38;1762125;80;21168;-88
2022/07/12 07:25:07;;;;;;;6.70;5.28;;;;;;;23.14;100.00;100888.34;1780730;80;21006;-89
2022/07/12 07:27:35;;;;;;;7.75;5.40;;;;;;;23.13;100.00;100884.05;1781924;80;21053;-89
2022/07/12 07:32:49;;;;;;;5.30;4.45;;;;;;;23.03;100.00;100887.53;1782150;80;21018;-88
2022/07/12 07:35:16;;;;;;;4.83;4.03;;;;;;;22.98;100.00;100892.08;1779256;80;21258;-88
2022/07/12 07:37:45;;;;;;;3.62;3.33;;;;;;;22.96;100.00;100891.96;1760103;80;21064;-89
2022/07/12 07:40:13;;;;;;;5.30;4.72;;;;;;;23.02;100.00;100890.38;1751624;81;21645;-88
2022/07/12 07:42:40;;;;;;;5.45;4.95;;;;;;;23.07;100.00;100885.31;1755215;80;21470;-89
2022/07/12 07:45:10;;;;;;;7.15;4.67;;;;;;;23.02;100.00;100895.70;1755814;80;21058;-90
2022/07/12 07:47:48;;;;;;;6.47;5.40;;;;;;;22.99;100.00;100895.05;1749650;81;21116;-89
2022/07/12 07:50:16;;;;;;;8.50;5.78;;;;;;;23.03;100.00;100892.84;1745101;81;20994;-89
2022/07/12 07:52:44;;;;;;;5.33;4.80;;;;;;;23.09;100.00;100889.93;1740832;82;21065;-89
2022/07/12 07:55:13;;;;;;;6.95;5.22;;;;;;;23.19;100.00;100890.46;1740856;81;21061;-89
2022/07/12 07:57:41;;;;;;;7.05;4.83;;;;;;;23.37;100.00;100895.78;1749458;81;21042;-89
2022/07/12 08:00:09;;;;;;;6.90;4.67;;;;;;;23.54;100.00;100890.48;1749567;81;21781;-88
2022/07/12 08:02:42;;;;;;;4.75;4.20;;;;;;;23.72;100.00;100893.15;1751797;80;20994;-89
2022/07/12 08:05:09;;;;;;;4.65;4.05;;;;;;;23.90;100.00;100893.95;1740748;82;21030;-89
2022/07/12 08:07:38;;;;;;;5.42;3.70;;;;;;;23.99;100.00;100893.33;1740864;82;21097;-88
2022/07/12 08:10:06;;;;;;;3.80;3.25;;;;;;;24.04;100.00;100891.70;1741060;82;21101;-89
2022/07/12 08:12:34;;;;;;;4.03;3.12;;;;;;;24.13;100.00;100888.37;1741395;82;21176;-89
2022/07/12 08:15:01;;;;;;;5.08;3.15;;;;;;;24.23;100.00;100889.32;1740815;82;21006;-90
2022/07/12 08:17:28;;;;;;;4.30;3.40;;;;;;;24.31;100.00;100894.47;1742902;81;21045;-88
2022/07/12 08:19:55;;;;;;;6.85;3.42;;;;;;;24.40;100.00;100889.77;1740836;82;21021;-89
2022/07/12 08:22:22;;;;;;;4.50;3.22;;;;;;;24.52;100.00;100897.98;1741529;82;21054;-89
2022/07/12 08:24:49;;;;;;;4.22;3.80;;;;;;;24.60;100.00;100899.13;1741140;82;21139;-89
2022/07/12 08:27:17;;;;;;;5.95;3.95;;;;;;;24.69;100.00;100902.48;1741229;82;21046;-89
2022/07/12 08:29:44;;;;;;;5.10;4.05;;;;;;;24.80;100.00;100897.87;1741102;82;21014;-89
2022/07/12 08:32:12;;;;;;;5.90;3.70;;;;;;;24.90;100.00;100900.16;1741081;82;21035;-89
2022/07/12 08:34:39;;;;;;;3.95;3.65;;;;;;;24.81;100.00;100899.52;1741126;81;21026;-88
2022/07/12 08:37:08;;;;;;;4.22;3.67;;;;;;;24.78;100.00;100905.27;1741050;82;21174;-90
2022/07/12 08:39:37;;;;;;;3.92;3.62;;;;;;;24.82;100.00;100904.34;1743528;81;21121;-89
2022/07/12 08:42:08;;;;;;;4.03;3.60;;;;;;;24.80;100.00;100907.19;1742032;82;21620;-89
2022/07/12 08:44:35;;;;;;;3.87;3.30;;;;;;;24.67;100.00;100910.67;1741006;81;21484;-90
2022/07/12 08:47:03;;;;;;;3.62;3.33;;;;;;;24.52;100.00;100908.64;1742063;81;21832;-89
2022/07/12 08:49:31;;;;;;;4.80;3.40;;;;;;;24.50;100.00;100920.83;1694477;83;21177;-89
2022/07/12 08:51:58;;;;;;;4.03;3.22;;;;;;;24.64;100.00;100915.52;1681769;85;21070;-89
2022/07/12 08:54:26;;;;;;;4.17;3.47;;;;;;;24.82;100.00;100918.98;1688221;84;21047;-90
2022/07/12 08:56:57;;;;;;;6.33;3.42;;;;;;;24.97;100.00;100918.78;1709542;83;21545;-90
2022/07/12 08:59:24;;;;;;;5.87;3.20;;;;;;;25.05;100.00;100914.59;1741362;80;21584;-89
2022/07/12 09:01:54;;;;;;;4.62;3.30;;;;;;;25.15;94.11;100913.67;1757018;80;21123;-90
2022/07/12 09:04:24;;;;;;;3.40;3.17;;;;;;;25.28;100.00;100920.84;1742079;81;21065;-89
2022/07/12 09:06:51;;;;;;;4.47;2.80;;;;;;;25.40;100.00;100914.41;1743386;82;21069;-89
2022/07/12 09:09:31;;;;;;;4.83;3.05;;;;;;;25.48;100.00;100916.03;1746043;81;21037;-89
2022/07/12 09:11:59;;;;;;;3.12;2.70;;;;;;;25.56;99.50;100913.67;1751759;81;21105;-89
2022/07/12 09:14:27;;;;;;;3.05;2.77;;;;;;;25.62;87.63;100915.50;1750494;81;21806;-91
2022/07/12 09:17:09;;;;;;;4.12;2.90;;;;;;;25.65;85.63;100907.91;1742390;82;21047;-90
2022/07/12 09:19:35;;;;;;;2.87;2.67;;;;;;;25.70;87.76;100914.47;1763098;81;21121;-90
2022/07/12 09:22:03;;;;;;;3.10;2.80;;;;;;;25.77;80.75;100917.41;1746358;80;21863;-90
2022/07/12 09:24:31;;;;;;;2.92;2.72;;;;;;;25.81;74.69;100914.64;1746799;81;21021;-90
2022/07/12 09:27:04;;;;;;;2.72;2.50;;;;;;;25.78;80.67;100912.38;1745059;81;21083;-89
2022/07/12 09:29:33;;;;;;;3.60;2.47;;;;;;;25.76;86.43;100922.44;1743716;81;21014;-89
2022/07/12 09:37:43;;;;;;;4.33;2.52;;;;;;;25.83;76.50;100921.93;1751390;81;21033;-91
2022/07/12 09:40:11;;;;;;;2.55;2.33;;;;;;;25.93;83.55;100913.48;1746943;81;21149;-90
2022/07/12 09:42:40;;;;;;;2.47;2.27;;;;;;;26.08;76.16;100913.77;1753933;81;21618;-90
2022/07/12 09:45:09;;;;;;;2.30;2.12;;;;;;;26.22;79.34;100915.34;1741016;82;21100;-90
2022/07/12 09:47:36;;;;;;;2.58;2.30;;;;;;;26.29;67.76;100920.66;1744356;81;21014;-90
2022/07/12 09:50:07;;;;;;;2.77;2.52;;;;;;;26.30;72.73;100922.30;1740252;81;21329;-91
2022/07/12 09:52:38;;;;;;;5.60;2.50;;;;;;;26.35;69.39;100918.46;1751705;80;22102;-91
2022/07/12 09:55:10;;;;;;;3.77;2.27;;;;;;;26.42;67.79;100904.56;1740565;82;21050;-89
2022/07/12 09:57:43;;;;;;;2.65;2.45;;;;;;;26.53;74.31;100919.61;1742848;80;21955;-89
2022/07/12 10:00:11;;;;;;;3.50;2.08;;;;;;;26.59;66.69;100922.75;1748388;81;21050;-91
2022/07/12 10:02:39;;;;;;;2.45;2.25;;;;;;;26.67;71.12;100911.81;1760531;80;21100;-92
2022/07/12 10:05:11;;;;;;;2.45;2.17;;;;;;;26.73;66.59;100917.62;1705852;82;21147;-90
2022/07/12 10:07:39;;;;;;;2.27;2.10;;;;;;;26.75;61.15;100918.23;1695414;84;21057;-90
2022/07/12 10:10:10;;;;;;;3.27;2.15;;;;;;;26.73;61.06;100912.80;1709209;82;21045;-90
2022/07/12 10:12:38;;;;;;;4.43;2.17;;;;;;;26.72;62.54;100913.30;1698336;82;21037;-89
2022/07/12 10:15:11;;;;;;;2.75;1.65;;;;;;;26.75;61.57;100919.56;1693837;83;21055;-90
2022/07/12 10:17:40;;;;;;;2.25;2.05;;;;;;;26.81;60.82;100918.41;1698425;83;21178;-91
2022/07/12 10:20:30;;;;;;;2.90;2.58;;;;;;;26.93;60.21;100920.71;1753249;81;21097;-90
2022/07/12 10:23:34;;;;;;;3.17;2.20;;;;;;;27.00;62.99;100917.47;1752589;81;21034;-89
2022/07/12 10:25:58;;;;;;;4.72;2.25;;;;;;;27.04;59.90;100913.84;1743130;80;21042;-89
2022/07/12 10:29:02;;;;;;;2.37;2.00;;;;;;;27.08;60.54;100907.84;1750937;81;21102;-91
2022/07/12 10:31:36;;;;;;;3.72;2.10;;;;;;;27.16;65.41;100919.29;1765445;81;21144;-89
2022/07/12 10:34:20;;;;;;;2.55;1.80;;;;;;;27.26;58.00;100914.78;1746397;81;21273;-88
2022/07/12 10:37:02;;;;;;;2.95;2.00;;;;;;;27.32;60.27;100913.39;1743180;81;21517;-89
2022/07/12 10:39:29;;;;;;;3.47;2.17;;;;;;;27.39;56.90;100917.35;1756592;80;21070;-88
2022/07/12 10:42:13;;;;;;;2.40;2.20;;;;;;;27.46;59.50;100923.98;1741087;81;21051;-89
2022/07/12 10:44:44;;;;;;;2.30;2.10;;;;;;;27.51;56.79;100916.94;1755933;80;21170;-88
2022/07/12 10:47:17;;;;;;;;;;;;;;;27.54;55.28;100915.67;1749704;81;21022;-90
2022/07/12 10:49:50;;;;;;;4.05;2.25;;;;;;;27.55;54.20;100913.30;1739855;81;20223;-89
2022/07/12 10:52:25;;;;;;;2.58;2.33;;;;;;;27.50;53.76;100916.64;1741092;81;21092;-90
2022/07/12 10:55:01;;;;;;;3.62;2.10;;;;;;;27.50;55.31;100907.81;1756610;81;20971;-89
2022/07/12 10:57:50;;;;;;;2.27;2.08;;;;;;;27.57;57.21;100912.57;1749702;81;21139;-89
2022/07/12 11:00:18;;;;;;;2.33;2.12;;;;;;;27.68;55.14;100910.48;1743846;81;21022;-90
2022/07/12 11:02:45;;;;;;;2.35;2.15;;;;;;;27.79;54.43;100920.15;1749980;81;21666;-91
2022/07/12 11:05:12;;;;;;;7.05;2.45;;;;;;;27.85;55.22;100908.05;1736964;82;21036;-90
2022/07/12 11:07:39;;;;;;;3.27;2.05;;;;;;;27.87;52.87;100910.48;1745812;80;21100;-88
2022/07/12 11:10:11;;;;;;;2.00;1.80;;;;;;;27.91;53.99;100912.19;1753438;81;21832;-89
2022/07/12 11:12:38;;;;;;;2.10;1.80;;;;;;;27.96;52.35;100908.34;1673209;84;21074;-89
2022/07/12 11:15:06;;;;;;;4.35;2.00;;;;;;;28.01;52.25;100903.12;1698674;82;21049;-88
2022/07/12 11:17:35;;;;;;;2.42;1.92;;;;;;;28.06;52.15;100906.47;1697499;83;21085;-88
2022/07/12 11:20:11;;;;;;;2.62;2.40;;;;;;;28.08;52.30;100901.75;1694453;83;43146;-88
2022/07/12 11:22:40;;;;;;;2.20;2.00;;;;;;;28.07;51.65;100901.45;1690750;83;21164;-88
2022/07/12 11:25:12;;;;;;;4.72;2.20;;;;;;;28.13;50.68;100904.02;1711011;82;21089;-88
2022/07/12 11:27:41;;;;;;;2.55;2.15;;;;;;;28.12;51.54;100904.25;1738493;81;21041;-87
2022/07/12 11:30:09;;;;;;;2.90;1.82;;;;;;;28.14;51.03;100907.53;1744817;81;21000;-90
2022/07/12 11:32:43;;;;;;;2.95;1.90;;;;;;;28.21;49.37;100902.91;1741917;81;21058;-88